createdAt,value
2023-03-25T00:00:16.827Z,11.80
2023-03-25T00:02:47.556Z,11.80
2023-03-25T00:05:17.168Z,11.80
2023-03-25T00:07:45.792Z,11.70
2023-03-25T00:10:14.273Z,11.70
2023-03-25T00:12:42.525Z,11.70
2023-03-25T00:15:12.055Z,12.10
2023-03-25T00:17:39.522Z,11.90
2023-03-25T00:20:10.011Z,11.90
2023-03-25T00:22:41.030Z,12.00
2023-03-25T00:25:18.919Z,11.90
2023-03-25T00:27:48.615Z,11.50
2023-03-25T00:30:18.169Z,11.60
2023-03-25T00:32:49.670Z,11.90
2023-03-25T00:35:19.167Z,11.70
2023-03-25T00:38:00.079Z,11.60
2023-03-25T00:40:29.863Z,11.80
2023-03-25T00:42:57.361Z,11.80
2023-03-25T00:45:24.241Z,11.70
2023-03-25T00:47:51.226Z,11.70
2023-03-25T00:50:18.465Z,11.90
2023-03-25T00:52:45.475Z,11.70
2023-03-25T00:55:12.460Z,11.70
2023-03-25T00:57:39.542Z,11.50
2023-03-25T01:00:12.215Z,11.70
2023-03-25T01:02:39.447Z,11.60
2023-03-25T01:05:09.128Z,11.50
2023-03-25T01:07:37.060Z,11.70
2023-03-25T01:10:07.296Z,11.50
2023-03-25T01:12:34.362Z,11.70
2023-03-25T01:15:01.403Z,11.90
2023-03-25T01:17:28.161Z,11.60
2023-03-25T01:19:55.933Z,11.70
2023-03-25T01:22:22.766Z,11.80
2023-03-25T01:24:49.590Z,11.70
2023-03-25T01:27:16.489Z,11.60
2023-03-25T01:29:43.301Z,11.60
2023-03-25T01:32:10.203Z,11.50
2023-03-25T01:34:38.499Z,11.60
2023-03-25T01:37:06.381Z,11.40
2023-03-25T01:39:33.290Z,11.40
2023-03-25T01:42:00.170Z,11.30
2023-03-25T01:44:27.875Z,11.50
2023-03-25T01:46:58.221Z,11.40
2023-03-25T01:49:31.126Z,11.10
2023-03-25T01:52:27.598Z,11.50
2023-03-25T01:54:57.653Z,11.40
2023-03-25T01:57:25.844Z,11.50
2023-03-25T01:59:55.564Z,11.20
2023-03-25T02:02:25.275Z,11.20
2023-03-25T02:05:10.807Z,11.10
2023-03-25T02:07:42.672Z,11.10
2023-03-25T02:10:12.962Z,11.30
2023-03-25T02:12:40.979Z,11.40
2023-03-25T02:15:11.069Z,11.20
2023-03-25T02:18:27.568Z,11.20
2023-03-25T02:21:18.116Z,11.30
2023-03-25T02:24:14.037Z,11.10
2023-03-25T02:27:14.096Z,11.20
2023-03-25T02:30:09.704Z,11.10
2023-03-25T02:33:16.882Z,10.90
2023-03-25T02:36:21.578Z,11.10
2023-03-25T02:38:57.812Z,11.20
2023-03-25T02:41:35.338Z,11.00
2023-03-25T02:44:16.551Z,11.00
2023-03-25T02:46:54.045Z,11.00
2023-03-25T02:49:53.456Z,11.30
2023-03-25T02:52:31.545Z,11.20
2023-03-25T02:55:04.870Z,11.10
2023-03-25T02:57:35.362Z,11.20
2023-03-25T03:00:15.728Z,11.30
2023-03-25T03:02:53.399Z,11.50
2023-03-25T03:05:33.758Z,11.30
2023-03-25T03:08:19.508Z,11.10
2023-03-25T03:11:27.314Z,11.20
2023-03-25T03:14:13.731Z,11.30
2023-03-25T03:17:22.048Z,11.10
2023-03-25T03:20:35.714Z,11.00
2023-03-25T03:23:33.685Z,10.90
2023-03-25T03:26:26.520Z,11.20
2023-03-25T03:29:20.563Z,11.10
2023-03-25T03:32:05.544Z,11.00
2023-03-25T03:34:49.268Z,11.00
2023-03-25T03:37:25.034Z,10.80
2023-03-25T03:39:55.386Z,10.80
2023-03-25T03:42:32.371Z,10.90
2023-03-25T03:45:07.613Z,10.90
2023-03-25T03:47:42.421Z,11.20
2023-03-25T03:50:15.964Z,11.10
2023-03-25T03:52:57.310Z,11.00
2023-03-25T03:55:37.864Z,11.10
2023-03-25T03:58:22.164Z,11.00
2023-03-25T04:01:03.030Z,10.90
2023-03-25T04:03:40.764Z,10.70
2023-03-25T04:06:20.935Z,10.90
2023-03-25T04:09:19.497Z,10.60
2023-03-25T04:12:00.856Z,10.50
2023-03-25T04:14:27.950Z,10.50
2023-03-25T04:16:55.962Z,10.50
2023-03-25T04:19:23.657Z,10.60
2023-03-25T04:21:50.431Z,10.80
2023-03-25T04:24:19.458Z,10.80
2023-03-25T04:26:47.654Z,10.50
2023-03-25T04:29:14.550Z,10.40
2023-03-25T04:31:49.927Z,10.50
2023-03-25T04:34:16.932Z,10.60
2023-03-25T04:36:43.758Z,10.70
2023-03-25T04:39:17.671Z,10.60
2023-03-25T04:41:44.644Z,10.40
2023-03-25T04:44:12.482Z,10.50
2023-03-25T04:46:39.312Z,10.40
2023-03-25T04:49:13.828Z,10.40
2023-03-25T04:51:47.725Z,10.50
2023-03-25T04:54:17.094Z,10.50
2023-03-25T04:56:47.677Z,10.30
2023-03-25T04:59:15.860Z,10.30
2023-03-25T05:01:45.856Z,10.30
2023-03-25T05:04:17.370Z,10.20
2023-03-25T05:06:49.359Z,10.30
2023-03-25T05:09:21.878Z,10.50
2023-03-25T05:11:53.210Z,10.50
2023-03-25T05:14:21.812Z,10.40
2023-03-25T05:16:49.623Z,10.40
2023-03-25T05:19:19.102Z,10.40
2023-03-25T05:21:46.594Z,10.30
2023-03-25T05:24:14.343Z,10.30
2023-03-25T05:26:42.607Z,10.50
2023-03-25T05:29:15.167Z,10.30
2023-03-25T05:31:45.516Z,10.30
2023-03-25T05:34:14.655Z,10.40
2023-03-25T05:36:41.776Z,10.30
2023-03-25T05:39:08.908Z,10.40
2023-03-25T05:41:38.886Z,10.30
2023-03-25T05:44:10.450Z,10.40
2023-03-25T05:46:37.317Z,10.20
2023-03-25T05:49:04.173Z,10.20
2023-03-25T05:51:37.329Z,10.20
2023-03-25T05:54:10.977Z,10.10
2023-03-25T05:56:38.843Z,10.20
2023-03-25T05:59:05.948Z,10.20
2023-03-25T06:01:37.636Z,10.10
2023-03-25T06:04:05.005Z,10.00
2023-03-25T06:06:34.164Z,10.00
2023-03-25T06:09:02.307Z,10.00
2023-03-25T06:11:29.379Z,10.20
2023-03-25T06:13:56.369Z,10.10
2023-03-25T06:16:29.683Z,10.10
2023-03-25T06:18:59.814Z,10.10
2023-03-25T06:21:33.233Z,10.20
2023-03-25T06:24:01.711Z,10.20
2023-03-25T06:26:29.224Z,10.30
2023-03-25T06:28:56.409Z,10.30
2023-03-25T06:31:33.119Z,10.30
2023-03-25T06:34:01.283Z,10.10
2023-03-25T06:36:28.270Z,10.20
2023-03-25T06:38:55.196Z,10.10
2023-03-25T06:41:25.015Z,9.90
2023-03-25T06:44:03.244Z,9.90
2023-03-25T06:46:48.775Z,9.90
2023-03-25T06:49:29.969Z,9.90
2023-03-25T06:51:58.228Z,10.10
2023-03-25T06:54:25.310Z,10.00
2023-03-25T06:56:52.110Z,10.10
2023-03-25T06:59:19.271Z,10.00
2023-03-25T07:01:46.285Z,10.10
2023-03-25T07:04:13.248Z,10.10
2023-03-25T07:06:41.051Z,10.20
2023-03-25T07:09:08.282Z,10.10
2023-03-25T07:11:35.532Z,10.10
2023-03-25T07:14:02.491Z,10.20
2023-03-25T07:16:30.405Z,10.00
2023-03-25T07:18:58.914Z,10.10
2023-03-25T07:21:26.797Z,10.00
2023-03-25T07:23:53.825Z,10.20
2023-03-25T07:26:20.916Z,10.30
2023-03-25T07:28:48.200Z,10.40
2023-03-25T07:31:17.097Z,10.40
2023-03-25T07:33:44.333Z,10.40
2023-03-25T07:36:14.337Z,10.40
2023-03-25T07:38:41.377Z,10.40
2023-03-25T07:41:11.913Z,10.50
2023-03-25T07:43:43.671Z,10.40
2023-03-25T07:46:36.658Z,10.40
2023-03-25T07:49:03.630Z,10.40
2023-03-25T07:51:31.196Z,10.30
2023-03-25T07:54:05.208Z,10.40
2023-03-25T07:56:34.016Z,10.40
2023-03-25T07:59:01.435Z,10.50
2023-03-25T08:01:28.488Z,10.40
2023-03-25T08:03:55.448Z,10.50
2023-03-25T08:06:23.246Z,10.40
2023-03-25T08:08:50.525Z,10.40
2023-03-25T08:11:17.495Z,10.50
2023-03-25T08:13:44.445Z,10.60
2023-03-25T08:16:14.403Z,10.50
2023-03-25T08:18:44.911Z,10.50
2023-03-25T08:21:13.651Z,10.50
2023-03-25T08:23:41.150Z,10.60
2023-03-25T08:26:08.214Z,10.60
2023-03-25T08:28:35.278Z,10.60
2023-03-25T08:31:08.869Z,10.70
2023-03-25T08:33:41.161Z,10.70
2023-03-25T08:36:13.818Z,10.70
2023-03-25T08:38:42.026Z,10.90
2023-03-25T08:41:09.062Z,10.80
2023-03-25T08:43:36.184Z,10.90
2023-03-25T08:46:03.621Z,11.00
2023-03-25T08:48:30.881Z,11.30
2023-03-25T08:50:58.874Z,11.20
2023-03-25T08:53:26.535Z,11.20
2023-03-25T08:55:58.762Z,11.30
2023-03-25T08:58:26.796Z,11.30
2023-03-25T09:00:56.133Z,11.30
2023-03-25T09:03:24.815Z,11.40
2023-03-25T09:05:51.883Z,11.40
2023-03-25T09:08:19.443Z,11.30
2023-03-25T09:10:46.445Z,11.40
2023-03-25T09:13:13.368Z,11.50
2023-03-25T09:15:40.601Z,11.40
2023-03-25T09:18:07.724Z,11.50
2023-03-25T09:20:34.770Z,11.50
2023-03-25T09:23:01.797Z,11.70
2023-03-25T09:25:28.751Z,11.70
2023-03-25T09:27:56.096Z,11.80
2023-03-25T09:30:23.026Z,12.10
2023-03-25T09:32:49.974Z,12.20
2023-03-25T09:35:17.091Z,12.00
2023-03-25T09:37:44.488Z,12.10
2023-03-25T09:40:17.639Z,12.00
2023-03-25T09:42:58.539Z,11.80
2023-03-25T09:45:31.949Z,11.90
2023-03-25T09:48:13.939Z,11.90
2023-03-25T09:50:44.144Z,12.00
2023-03-25T09:53:11.101Z,12.00
2023-03-25T09:55:44.808Z,12.20
2023-03-25T09:58:20.863Z,12.10
2023-03-25T10:01:13.952Z,12.10
2023-03-25T10:03:43.675Z,12.10
2023-03-25T10:06:19.603Z,12.30
2023-03-25T10:09:02.825Z,12.40
2023-03-25T10:11:41.104Z,12.10
2023-03-25T10:14:48.658Z,12.00
2023-03-25T10:17:39.244Z,12.20
2023-03-25T10:20:48.590Z,12.40
2023-03-25T10:23:33.599Z,12.40
2023-03-25T10:26:30.622Z,12.40
2023-03-25T10:29:07.239Z,12.30
2023-03-25T10:31:40.634Z,12.50
2023-03-25T10:34:26.253Z,12.60
2023-03-25T10:36:57.697Z,12.80
2023-03-25T10:39:34.150Z,12.70
2023-03-25T10:42:20.388Z,12.60
2023-03-25T10:44:48.465Z,12.70
2023-03-25T10:47:21.856Z,12.80
2023-03-25T10:49:52.258Z,12.60
2023-03-25T10:52:19.446Z,12.60
2023-03-25T10:54:56.065Z,12.60
2023-03-25T10:57:31.068Z,12.70
2023-03-25T11:00:19.560Z,12.90
2023-03-25T11:02:50.576Z,12.90
2023-03-25T11:05:27.837Z,12.70
2023-03-25T11:08:08.792Z,12.70
2023-03-25T11:10:49.147Z,12.90
2023-03-25T11:13:21.896Z,12.60
2023-03-25T11:15:49.937Z,12.80
2023-03-25T11:18:39.828Z,12.90
2023-03-25T11:21:14.110Z,13.10
2023-03-25T11:23:47.910Z,13.20
2023-03-25T11:26:40.627Z,13.30
2023-03-25T11:29:14.158Z,13.10
2023-03-25T11:31:42.949Z,13.30
2023-03-25T11:34:12.588Z,13.50
2023-03-25T11:37:16.853Z,13.40
2023-03-25T11:39:55.480Z,13.50
2023-03-25T11:42:42.496Z,13.80
2023-03-25T11:45:35.749Z,13.80
2023-03-25T11:48:17.931Z,13.90
2023-03-25T11:50:54.830Z,13.90
2023-03-25T11:53:26.987Z,13.70
2023-03-25T11:55:59.767Z,13.90
2023-03-25T11:58:33.062Z,13.90
2023-03-25T12:01:07.289Z,13.60
2023-03-25T12:03:35.781Z,13.60
2023-03-25T12:06:18.641Z,13.60
2023-03-25T12:08:58.351Z,13.70
2023-03-25T12:11:51.629Z,13.80
2023-03-25T12:14:30.826Z,14.10
2023-03-25T12:17:26.750Z,14.10
2023-03-25T12:20:25.796Z,14.10
2023-03-25T12:23:07.003Z,14.40
2023-03-25T12:25:58.381Z,14.60
2023-03-25T12:28:37.049Z,14.40
2023-03-25T12:31:11.170Z,14.10
2023-03-25T12:34:16.912Z,13.90
2023-03-25T12:37:24.907Z,14.20
2023-03-25T12:40:19.160Z,14.30
2023-03-25T12:43:02.743Z,14.20
2023-03-25T12:45:37.809Z,14.20
2023-03-25T12:48:39.714Z,14.00
2023-03-25T12:51:31.636Z,14.10
2023-03-25T12:54:25.001Z,14.00
2023-03-25T12:57:35.279Z,14.20
2023-03-25T13:00:33.151Z,14.20
2023-03-25T13:03:13.139Z,14.20
2023-03-25T13:06:31.957Z,14.40
2023-03-25T13:09:42.201Z,14.50
2023-03-25T13:12:53.754Z,14.50
2023-03-25T13:15:27.232Z,14.40
2023-03-25T13:18:04.136Z,14.30
2023-03-25T13:20:39.281Z,14.10
2023-03-25T13:23:14.801Z,14.30
2023-03-25T13:25:56.237Z,14.50
2023-03-25T13:28:38.365Z,14.30
2023-03-25T13:31:11.684Z,14.30
2023-03-25T13:33:47.235Z,14.40
2023-03-25T13:36:21.771Z,14.10
2023-03-25T13:38:56.281Z,14.10
2023-03-25T13:41:36.416Z,14.00
2023-03-25T13:44:20.229Z,14.00
2023-03-25T13:47:15.857Z,14.10
2023-03-25T13:50:01.683Z,14.10
2023-03-25T13:52:39.643Z,14.20
2023-03-25T13:55:21.276Z,14.00
2023-03-25T13:58:27.854Z,13.60
2023-03-25T14:01:10.002Z,13.50
2023-03-25T14:04:24.531Z,13.20
2023-03-25T14:07:21.746Z,13.10
2023-03-25T14:10:47.016Z,12.70
2023-03-25T14:13:38.383Z,12.40
2023-03-25T14:16:14.711Z,12.50
2023-03-25T14:18:46.554Z,12.70
2023-03-25T14:21:38.331Z,12.80
2023-03-25T14:24:36.921Z,12.80
2023-03-25T14:27:29.906Z,12.90
2023-03-25T14:30:15.608Z,13.10
2023-03-25T14:32:44.561Z,13.10
2023-03-25T14:35:31.683Z,13.20
2023-03-25T14:38:07.782Z,13.60
2023-03-25T14:40:59.081Z,13.50
2023-03-25T14:43:52.965Z,13.70
2023-03-25T14:46:23.880Z,13.90
2023-03-25T14:49:19.753Z,14.00
2023-03-25T14:51:53.658Z,14.00
2023-03-25T14:54:32.172Z,13.80
2023-03-25T14:57:15.889Z,13.60
2023-03-25T15:00:18.043Z,13.50
2023-03-25T15:03:08.712Z,13.40
2023-03-25T15:05:37.594Z,13.60
2023-03-25T15:08:09.309Z,13.50
2023-03-25T15:10:48.313Z,13.70
2023-03-25T15:13:33.174Z,13.60
2023-03-25T15:16:26.805Z,13.50
2023-03-25T15:18:53.706Z,13.10
2023-03-25T15:21:24.978Z,12.20
2023-03-25T15:24:13.457Z,11.80
2023-03-25T15:26:44.493Z,11.60
2023-03-25T15:29:26.323Z,11.50
2023-03-25T15:32:23.738Z,11.40
2023-03-25T15:35:34.600Z,11.10
2023-03-25T15:38:40.524Z,11.00
2023-03-25T15:41:36.552Z,11.00
2023-03-25T15:44:44.911Z,10.90
2023-03-25T15:47:36.354Z,10.90
2023-03-25T15:50:43.799Z,11.00
2023-03-25T15:53:46.881Z,11.00
2023-03-25T15:56:26.251Z,11.00
2023-03-25T15:59:18.575Z,11.20
2023-03-25T16:01:51.518Z,11.20
2023-03-25T16:04:33.877Z,11.10
2023-03-25T16:07:04.697Z,11.00
2023-03-25T16:09:33.546Z,11.10
2023-03-25T16:12:03.039Z,11.10
2023-03-25T16:14:33.587Z,11.10
2023-03-25T16:17:04.555Z,11.10
2023-03-25T16:19:41.344Z,11.10
2023-03-25T16:22:29.415Z,11.10
2023-03-25T16:25:01.068Z,11.10
2023-03-25T16:27:37.578Z,11.10
2023-03-25T16:30:24.903Z,10.90
2023-03-25T16:32:52.297Z,10.80
2023-03-25T16:35:26.879Z,10.80
2023-03-25T16:37:57.932Z,10.70
2023-03-25T16:40:36.157Z,10.70
2023-03-25T16:43:07.716Z,10.70
2023-03-25T16:45:35.657Z,11.00
2023-03-25T16:48:07.447Z,11.10
2023-03-25T16:50:35.866Z,10.90
2023-03-25T16:53:03.152Z,11.00
2023-03-25T16:55:50.622Z,11.10
2023-03-25T16:58:23.292Z,11.10
2023-03-25T17:00:54.030Z,11.20
2023-03-25T17:03:46.697Z,11.10
2023-03-25T17:06:35.314Z,11.00
2023-03-25T17:09:04.795Z,10.80
2023-03-25T17:11:33.083Z,10.80
2023-03-25T17:14:16.922Z,10.80
2023-03-25T17:16:46.844Z,10.80
2023-03-25T17:19:16.382Z,10.80
2023-03-25T17:22:28.163Z,10.80
2023-03-25T17:25:34.923Z,10.90
2023-03-25T17:28:33.183Z,10.90
2023-03-25T17:31:16.245Z,10.80
2023-03-25T17:33:50.484Z,10.80
2023-03-25T17:36:19.332Z,10.80
2023-03-25T17:38:51.980Z,10.80
2023-03-25T17:41:20.566Z,10.80
2023-03-25T17:43:55.597Z,10.90
2023-03-25T17:46:29.279Z,10.90
2023-03-25T17:48:58.326Z,10.80
2023-03-25T17:51:29.955Z,10.80
2023-03-25T17:53:57.298Z,10.70
2023-03-25T17:56:28.454Z,10.70
2023-03-25T17:59:23.113Z,10.60
2023-03-25T18:01:50.396Z,10.70
2023-03-25T18:04:20.977Z,10.50
2023-03-25T18:06:48.421Z,10.60
2023-03-25T18:09:22.098Z,10.50
2023-03-25T18:11:56.161Z,10.70
2023-03-25T18:14:24.436Z,10.70
2023-03-25T18:16:52.343Z,10.80
2023-03-25T18:19:26.920Z,10.80
2023-03-25T18:21:54.865Z,10.90
2023-03-25T18:24:22.617Z,10.80
2023-03-25T18:26:50.097Z,10.70
2023-03-25T18:29:25.447Z,10.70
2023-03-25T18:31:52.865Z,10.50
2023-03-25T18:34:23.046Z,10.70
2023-03-25T18:36:50.481Z,10.80
2023-03-25T18:39:22.053Z,10.70
2023-03-25T18:41:49.684Z,10.50
2023-03-25T18:44:16.775Z,10.40
2023-03-25T18:46:43.714Z,10.40
2023-03-25T18:49:18.303Z,10.30
2023-03-25T18:51:48.155Z,10.30
2023-03-25T18:54:16.225Z,10.20
2023-03-25T18:56:43.735Z,10.20
2023-03-25T18:59:16.223Z,10.20
2023-03-25T19:01:43.332Z,10.30
2023-03-25T19:04:10.234Z,10.20
2023-03-25T19:06:39.164Z,10.20
2023-03-25T19:09:09.099Z,10.30
2023-03-25T19:11:36.172Z,10.30
2023-03-25T19:14:03.132Z,10.20
2023-03-25T19:16:30.253Z,10.20
2023-03-25T19:18:57.218Z,10.20
2023-03-25T19:21:23.985Z,10.20
2023-03-25T19:23:52.132Z,10.20
2023-03-25T19:26:19.125Z,10.10
2023-03-25T19:28:46.121Z,10.30
2023-03-25T19:31:18.259Z,10.30
2023-03-25T19:33:45.193Z,10.20
2023-03-25T19:36:18.759Z,10.30
2023-03-25T19:38:45.809Z,10.30
2023-03-25T19:41:16.000Z,10.30
2023-03-25T19:43:43.315Z,10.20
2023-03-25T19:46:10.808Z,10.30
2023-03-25T19:48:38.356Z,10.30
2023-03-25T19:51:05.721Z,10.30
2023-03-25T19:53:32.607Z,10.40
2023-03-25T19:56:04.754Z,10.40
2023-03-25T19:58:34.334Z,10.30
2023-03-25T20:01:01.178Z,10.20
2023-03-25T20:03:31.194Z,10.20
2023-03-25T20:06:00.850Z,10.20
2023-03-25T20:08:29.579Z,10.20
2023-03-25T20:10:56.765Z,10.10
2023-03-25T20:13:23.685Z,10.10
2023-03-25T20:15:51.170Z,10.00
2023-03-25T20:18:18.276Z,10.00
2023-03-25T20:20:45.285Z,10.00
2023-03-25T20:23:12.806Z,10.00
2023-03-25T20:25:39.803Z,10.00
2023-03-25T20:28:06.670Z,9.90
2023-03-25T20:30:35.427Z,9.90
2023-03-25T20:33:03.131Z,9.90
2023-03-25T20:35:31.270Z,9.90
2023-03-25T20:37:58.226Z,9.90
2023-03-25T20:40:33.672Z,9.90
2023-03-25T20:43:04.933Z,9.90
2023-03-25T20:45:32.936Z,9.90
2023-03-25T20:47:59.897Z,9.90
2023-03-25T20:50:28.651Z,10.00
2023-03-25T20:52:55.607Z,10.00
2023-03-25T20:55:22.605Z,9.90
2023-03-25T20:57:49.462Z,10.10
2023-03-25T21:00:18.134Z,10.00
2023-03-25T21:02:45.771Z,9.90
2023-03-25T21:05:12.696Z,9.90
2023-03-25T21:07:41.122Z,9.90
2023-03-25T21:10:09.326Z,9.90
2023-03-25T21:12:43.832Z,10.00
2023-03-25T21:15:14.647Z,9.90
2023-03-25T21:17:42.350Z,10.00
2023-03-25T21:20:10.344Z,10.00
2023-03-25T21:22:42.732Z,10.00
2023-03-25T21:25:10.455Z,10.10
2023-03-25T21:27:37.841Z,10.00
2023-03-25T21:30:11.514Z,10.00
2023-03-25T21:32:38.963Z,9.90
2023-03-25T21:35:07.737Z,9.90
2023-03-25T21:37:38.370Z,9.80
2023-03-25T21:40:08.615Z,9.80
2023-03-25T21:42:38.300Z,9.80
2023-03-25T21:45:07.999Z,9.70
2023-03-25T21:47:36.641Z,9.70
2023-03-25T21:50:07.537Z,9.70
2023-03-25T21:52:35.767Z,9.70
2023-03-25T21:55:03.736Z,9.70
2023-03-25T21:57:30.730Z,9.70
2023-03-25T21:59:57.509Z,9.70
2023-03-25T22:02:25.497Z,9.70
2023-03-25T22:04:52.309Z,9.70
2023-03-25T22:07:19.062Z,9.60
2023-03-25T22:09:47.937Z,9.60
2023-03-25T22:12:14.697Z,9.60
2023-03-25T22:14:41.552Z,9.50
2023-03-25T22:17:08.432Z,9.50
2023-03-25T22:19:35.466Z,9.50
2023-03-25T22:22:03.167Z,9.50
2023-03-25T22:24:30.691Z,9.50
2023-03-25T22:26:57.623Z,9.50
2023-03-25T22:29:24.439Z,9.60
2023-03-25T22:31:55.599Z,9.60
2023-03-25T22:34:22.471Z,9.70
2023-03-25T22:36:50.492Z,9.70
2023-03-25T22:39:20.277Z,9.70
2023-03-25T22:41:47.550Z,9.80
2023-03-25T22:44:16.830Z,9.70
2023-03-25T22:46:48.580Z,9.70
2023-03-25T22:49:16.828Z,9.70
2023-03-25T22:51:43.815Z,9.80
2023-03-25T22:54:10.704Z,9.80
2023-03-25T22:56:38.348Z,9.80
2023-03-25T22:59:07.809Z,9.80
2023-03-25T23:01:36.287Z,9.80
2023-03-25T23:04:04.262Z,9.70
2023-03-25T23:06:32.962Z,9.80
2023-03-25T23:08:59.869Z,9.70
2023-03-25T23:11:30.304Z,9.80
2023-03-25T23:14:02.775Z,9.80
2023-03-25T23:16:31.177Z,9.80
2023-03-25T23:18:58.862Z,9.80
2023-03-25T23:21:30.874Z,9.80
2023-03-25T23:24:01.326Z,9.80
2023-03-25T23:26:38.877Z,9.80
2023-03-25T23:29:09.433Z,9.80
2023-03-25T23:31:41.225Z,9.80
2023-03-25T23:34:14.820Z,9.80
2023-03-25T23:36:42.734Z,9.80
2023-03-25T23:39:17.585Z,9.80
2023-03-25T23:41:44.516Z,9.80
2023-03-25T23:44:11.470Z,9.70
2023-03-25T23:46:38.668Z,9.70
2023-03-25T23:49:05.612Z,9.80
2023-03-25T23:51:39.745Z,9.70
2023-03-25T23:54:11.445Z,9.70
2023-03-25T23:56:38.851Z,9.70
2023-03-25T23:59:06.828Z,9.70
